METAR - Ísland

Uppfært síðast 18.01.2018 - kl. 10:13

SIGMET síðustu 6 klst.

Engin SIGMET skeyti bárust síðustu 6 klst.

METAR síðustu 3 klst

Flugv.TímiSkeyti
BIAR2018-01-18 10.00METAR BIAR 181000Z 17004KT 9999 SCT035 BKN040 M10/M11 Q0989
BIAR2018-01-18 09.00METAR BIAR 180900Z 18004KT 120V230 9999 SCT045 M11/M12 Q0988
BIAR2018-01-18 08.00METAR BIAR 180800Z 00000KT 9999 FEW060 M14/M15 Q0988
BIBD2018-01-18 10.00METAR BIBD 181000Z 02011KT 9999 FEW035 00/M06 Q0987 RMK MOKSTUR
BIBD2018-01-18 09.00METAR BIBD 180900Z 02002KT 9999 BKN030 M00/M05 Q0987 R04/4915// RMK MOKSTUR
BIBD2018-01-18 08.00METAR BIBD 180800Z 01006KT CAVOK M01/M07 Q0986 R04/4915// RMK MOKSTUR
BIEG2018-01-18 10.00METAR BIEG 181000Z 00000KT 5000 -SN OVC008 M06/M08 Q0988 R04/490294
BIEG2018-01-18 09.10SPECI BIEG 180910Z 17003KT 5000 -SHSN BKN008 BKN030 M07/M08 Q0987 R04/490195
BIEG2018-01-18 09.00METAR BIEG 180900Z 15004KT 9999 VCSH FEW035 SCT050 BKN070 M07/M09 Q0987 R04/390095
BIEG2018-01-18 08.00METAR BIEG 180800Z 19006KT 9999 FEW030 SCT040 BKN110 M06/M09 Q0987 R04/390095
BIGR2018-01-18 08.00METAR BIGR 180800Z 15006KT 9999 FEW045 M03/M07 Q0987
BIHN2018-01-18 10.00METAR BIHN 181000Z 33008KT CAVOK M06/M11 Q0986
BIHN2018-01-18 09.00METAR BIHN 180900Z 34009KT CAVOK M06/M10 Q0985
BIHN2018-01-18 08.00METAR BIHN 180800Z 35009KT CAVOK M05/M10 Q0985
BIHU2018-01-18 10.00METAR BIHU 181000Z 17004KT 9999 SCT025 BKN055 M07/M11 Q0988 R20/390195
BIHU2018-01-18 09.00METAR BIHU 180900Z 17004KT 9999 SCT025 BKN055 M07/M11 Q0988 R20/390195
BIHU2018-01-18 08.00METAR BIHU 180800Z 17004KT 9999 SCT025 BKN055 M07/M11 Q0987 R20/390195
BIIS2018-01-18 10.00METAR BIIS 181000Z 06005KT 020V080 9999 VCSH SCT020 OVC035 00/M03 Q0987
BIIS2018-01-18 09.00METAR BIIS 180900Z 04010KT 010V080 9999 SHSN SCT025 OVC040 01/M03 Q0987
BIIS2018-01-18 08.00METAR BIIS 180800Z 06010KT 8000 SHSN BKN020 OVC034 M00/M03 Q0987
BIKF2018-01-18 10.00METAR BIKF 181000Z 15011KT 9999 VCSH FEW030CB SCT049 SCT100 M04/M06 Q0985
BIKF2018-01-18 09.30METAR BIKF 180930Z 14011KT 9999 FEW037 SCT049 SCT100 M04/M06 Q0985
BIKF2018-01-18 09.00METAR BIKF 180900Z 14010KT 9999 FEW030 SCT045 BKN110 M04/M06 Q0984
BIKF2018-01-18 08.30METAR BIKF 180830Z 15011KT 9999 FEW030 BKN110 M04/M05 Q0984 R19/390061
BIKF2018-01-18 08.00METAR BIKF 180800Z 15010KT 9999 FEW041 BKN110 M05/M06 Q0984 R19/390061
BIKF2018-01-18 07.30METAR BIKF 180730Z 15010KT 9999 FEW035 SCT080 BKN110 M05/M06 Q0984 R19/390061
BIRK2018-01-18 10.00METAR BIRK 181000Z 09007KT 9999 VCSH FEW035 BKN050 M04/M07 Q0986 R13/990153
BIRK2018-01-18 09.00METAR BIRK 180900Z 10007KT 9999 VCSH FEW013 SCT035 BKN100 M04/M06 Q0985 RESHSN R19/490153
BIRK2018-01-18 08.00METAR BIRK 180800Z 10007KT 9999 SCT013 BKN025 OVC100 M04/M06 Q0984 R19/490153
BITN2018-01-18 10.00METAR BITN 181000Z 19005KT 9999 BKN030 M05/M07 Q0987 RMK 50
BITN2018-01-18 09.00METAR BITN 180900Z 17005KT 9999 SCT040 M08/M11 Q0987 RMK 50
BITN2018-01-18 08.00METAR BITN 180800Z 18005KT 9999 SCT040 M08/M11 Q0986 RMK 50
BIVM2018-01-18 10.00METAR BIVM 181000Z 05007KT 9999 VCSH FEW025 M02/M05 Q0984 R03/390062
BIVM2018-01-18 09.00METAR BIVM 180900Z 04008KT CAVOK M02/M05 Q0984 R03/390062
BIVM2018-01-18 08.17METAR BIVM 180817Z 03006KT CAVOK M03/M05 Q0983 R03/390062
BIVO2018-01-18 10.00METAR BIVO 181000Z 23008KT 9999 SCT020 BKN035 05/M07 Q0988
BIVO2018-01-18 09.00METAR BIVO 180900Z 23008KT 9999 BKN040 05/M08 Q0987
BIVO2018-01-18 08.00METAR BIVO 180800Z 23008KT 9999 BKN040 06/M09 Q0986

Textaspár eru skrifaðar af vakthafandi veðurfræðingi á Veðurstofu Íslands.




Aðrir tengdir vefir



Þetta vefsvæði byggir á Eplica